KOMK/OMK METAR and TAF weather

Enter ICAO airport designator
Station Type Date Time Source
KOMK METAR 2020/12/06 01:02 UTC NOAA

KOMK 060102Z AUTO 15003KT 3/4SM BR OVC002 M03/M04 A3029 RMK AO2 T10281044


Station Type Date Time Source
KOMK Decoded METAR 2020/12/06 01:02 UTC NOAA

OMAK AIRPORT, WA, United States (KOMK) 48-28N 119-31W 395M
Dec 05, 2020 - 08:02 PM EST / 2020.12.06 0102 UTC
Wind: from the SSE (150 degrees) at 3 MPH (3 KT):0
Visibility: 3/4 mile(s):0
Sky conditions: overcast
Weather: mist
Temperature: 27.0 F (-2.8 C)
Dew Point: 24.1 F (-4.4 C)
Relative Humidity: 88%
Pressure (altimeter): 30.29 in. Hg (1025 hPa)
ob: KOMK 060102Z AUTO 15003KT 3/4SM BR OVC002 M03/M04 A3029 RMK AO2 T10281044
cycle: 1

Station Type Date Time Source
KOMK TAF UTC NOAA

Error!

Example: see airport list